TimeEST,TemperatureF,Dew PointF,Humidity,Sea Level PressureIn,VisibilityMPH,Wind Direction,Wind SpeedMPH,Gust SpeedMPH,PrecipitationIn,Events,Conditions,WindDirDegrees,DateUTC
12:53 AM,42.1,30.0,62,30.31,10.0,NNE,8.1,-,N/A,,Clear,20,2013-12-25 05:53:00
1:53 AM,39.9,30.0,68,30.30,10.0,North,5.8,-,N/A,,Clear,360,2013-12-25 06:53:00
2:53 AM,39.0,28.9,67,30.29,10.0,North,5.8,-,N/A,,Clear,360,2013-12-25 07:53:00
3:53 AM,37.9,28.0,68,30.28,10.0,North,5.8,-,N/A,,Clear,360,2013-12-25 08:53:00
4:53 AM,37.9,28.0,68,30.28,10.0,North,5.8,-,N/A,,Clear,350,2013-12-25 09:53:00
5:53 AM,36.0,28.9,76,30.27,10.0,NNW,5.8,-,N/A,,Clear,340,2013-12-25 10:53:00
6:53 AM,37.0,30.0,76,30.28,10.0,North,5.8,-,N/A,,Clear,360,2013-12-25 11:53:00
7:53 AM,37.9,32.0,79,30.30,10.0,North,5.8,-,N/A,,Clear,350,2013-12-25 12:53:00
8:53 AM,44.1,36.0,73,30.31,10.0,North,5.8,-,N/A,,Clear,10,2013-12-25 13:53:00
9:53 AM,52.0,42.1,69,30.32,10.0,NNE,9.2,-,N/A,,Clear,30,2013-12-25 14:53:00
10:53 AM,59.0,46.9,64,30.32,10.0,NNE,10.4,-,N/A,,Mostly Cloudy,30,2013-12-25 15:53:00
11:53 AM,64.0,50.0,60,30.29,10.0,NE,12.7,-,N/A,,Clear,40,2013-12-25 16:53:00
12:53 PM,66.9,52.0,59,30.25,10.0,ENE,10.4,-,N/A,,Clear,70,2013-12-25 17:53:00
1:53 PM,69.1,52.0,54,30.23,10.0,NNE,12.7,-,N/A,,Partly Cloudy,20,2013-12-25 18:53:00
2:53 PM,68.0,54.0,61,30.22,10.0,ENE,13.8,-,N/A,,Scattered Clouds,60,2013-12-25 19:53:00
3:53 PM,62.1,52.0,70,30.23,10.0,NE,17.3,-,N/A,,Mostly Cloudy,50,2013-12-25 20:53:00
4:35 PM,57.9,51.1,78,30.24,9.0,NE,17.3,-,N/A,,Overcast,50,2013-12-25 21:35:00
4:53 PM,55.9,51.1,84,30.25,8.0,NE,15.0,23.0,N/A,,Overcast,40,2013-12-25 21:53:00
5:53 PM,55.0,50.0,83,30.26,9.0,NNE,10.4,-,N/A,,Overcast,30,2013-12-25 22:53:00
6:44 PM,54.0,50.0,86,30.26,8.0,NE,12.7,-,N/A,,Overcast,50,2013-12-25 23:44:00
6:53 PM,54.0,51.1,90,30.26,8.0,NE,10.4,-,N/A,,Overcast,40,2013-12-25 23:53:00
7:53 PM,54.0,51.1,90,30.28,8.0,NE,10.4,-,N/A,,Overcast,50,2013-12-26 00:53:00
8:53 PM,53.1,51.1,93,30.27,7.0,NNE,10.4,-,N/A,,Overcast,30,2013-12-26 01:53:00
9:53 PM,53.1,50.0,89,30.28,7.0,NE,8.1,-,N/A,,Overcast,40,2013-12-26 02:53:00
10:53 PM,52.0,50.0,93,30.28,7.0,North,11.5,-,N/A,,Overcast,10,2013-12-26 03:53:00
11:53 PM,51.1,48.9,92,30.27,7.0,North,9.2,-,N/A,,Overcast,10,2013-12-26 04:53:00